createdAt,value
2023-05-14T00:01:16.733Z,6.97
2023-05-14T00:06:19.699Z,6.94
2023-05-14T00:11:22.503Z,6.88
2023-05-14T00:16:25.533Z,6.79
2023-05-14T00:21:28.422Z,6.73
2023-05-14T00:26:31.396Z,6.66
2023-05-14T00:31:34.175Z,6.59
2023-05-14T00:36:37.043Z,6.49
2023-05-14T00:41:40.049Z,6.45
2023-05-14T00:46:43.896Z,6.40
2023-05-14T00:51:47.220Z,6.33
2023-05-14T00:56:51.113Z,6.27
2023-05-14T01:01:54.521Z,6.21
2023-05-14T01:07:21.063Z,6.13
2023-05-14T01:12:53.388Z,6.03
2023-05-14T01:18:01.985Z,5.94
2023-05-14T01:23:05.020Z,5.91
2023-05-14T01:28:19.434Z,5.88
2023-05-14T01:33:25.023Z,5.82
2023-05-14T01:38:31.852Z,5.72
2023-05-14T01:43:36.008Z,5.65
2023-05-14T01:48:38.983Z,5.59
2023-05-14T01:53:41.834Z,5.53
2023-05-14T01:58:44.817Z,5.45
2023-05-14T02:03:47.664Z,5.41
2023-05-14T02:08:51.000Z,5.39
2023-05-14T02:13:53.880Z,5.32
2023-05-14T02:18:56.790Z,5.20
2023-05-14T02:23:59.694Z,5.13
2023-05-14T02:29:02.518Z,5.10
2023-05-14T02:34:06.863Z,5.06
2023-05-14T02:39:09.671Z,5.01
2023-05-14T02:44:12.491Z,4.97
2023-05-14T02:49:15.271Z,4.98
2023-05-14T02:54:18.075Z,4.95
2023-05-14T02:59:20.854Z,4.89
2023-05-14T03:04:24.273Z,4.87
2023-05-14T03:09:27.101Z,4.90
2023-05-14T03:14:29.903Z,4.90
2023-05-14T03:19:32.724Z,4.91
2023-05-14T03:24:35.648Z,4.94
2023-05-14T03:29:38.514Z,5.03
2023-05-14T03:34:41.672Z,5.14
2023-05-14T03:39:44.491Z,5.22
2023-05-14T03:44:47.322Z,5.30
2023-05-14T03:49:50.201Z,5.40
2023-05-14T03:54:53.142Z,5.59
2023-05-14T03:59:55.931Z,5.84
2023-05-14T04:04:58.799Z,6.12
2023-05-14T04:10:04.539Z,6.39
2023-05-14T04:15:08.833Z,6.64
2023-05-14T04:20:11.804Z,6.88
2023-05-14T04:25:14.619Z,7.16
2023-05-14T04:30:17.755Z,7.49
2023-05-14T04:35:23.443Z,7.78
2023-05-14T04:40:28.018Z,8.06
2023-05-14T04:45:34.292Z,8.35
2023-05-14T04:50:37.353Z,8.75
2023-05-14T04:55:40.164Z,9.19
2023-05-14T05:00:43.092Z,9.55
2023-05-14T05:05:45.892Z,9.87
2023-05-14T05:10:48.813Z,10.20
2023-05-14T05:15:51.669Z,10.50
2023-05-14T05:20:54.563Z,10.86
2023-05-14T05:25:57.380Z,11.25
2023-05-14T05:31:00.288Z,11.66
2023-05-14T05:36:03.287Z,12.00
2023-05-14T05:41:06.569Z,12.30
2023-05-14T05:46:09.471Z,12.64
2023-05-14T05:51:12.296Z,12.95
2023-05-14T05:56:15.147Z,13.30
2023-05-14T06:01:17.945Z,13.65
2023-05-14T06:06:21.893Z,14.02
2023-05-14T06:11:25.460Z,14.39
2023-05-14T06:16:28.362Z,14.81
2023-05-14T06:21:31.088Z,15.25
2023-05-14T06:26:33.898Z,15.69
2023-05-14T06:31:36.650Z,16.07
2023-05-14T06:36:39.577Z,16.46
2023-05-14T06:41:42.384Z,16.81
2023-05-14T06:46:45.146Z,17.14
2023-05-14T06:51:47.991Z,17.43
2023-05-14T06:56:50.832Z,17.74
2023-05-14T07:01:53.750Z,18.08
2023-05-14T07:06:56.667Z,18.41
2023-05-14T07:11:59.482Z,18.68
2023-05-14T07:17:02.412Z,18.97
2023-05-14T07:22:05.607Z,19.25
2023-05-14T07:27:09.149Z,19.54
2023-05-14T07:32:14.722Z,19.86
2023-05-14T07:37:19.040Z,20.21
2023-05-14T07:42:34.479Z,20.54
2023-05-14T07:47:40.721Z,20.82
2023-05-14T07:52:43.782Z,21.08
2023-05-14T07:57:46.605Z,21.25
2023-05-14T08:02:50.487Z,21.44
2023-05-14T08:07:53.484Z,21.64
2023-05-14T08:12:56.387Z,21.86
2023-05-14T08:18:03.653Z,22.01
2023-05-14T08:23:07.598Z,22.21
2023-05-14T08:28:10.424Z,22.41
2023-05-14T08:33:13.469Z,22.60
2023-05-14T08:38:16.357Z,22.81
2023-05-14T08:43:22.904Z,22.98
2023-05-14T08:48:29.394Z,23.14
2023-05-14T08:53:32.295Z,23.30
2023-05-14T08:58:35.103Z,23.46
2023-05-14T09:03:38.836Z,23.58
2023-05-14T09:08:41.965Z,23.80
2023-05-14T09:13:44.776Z,24.12
2023-05-14T09:18:48.172Z,24.34
2023-05-14T09:23:55.465Z,24.53
2023-05-14T09:29:02.782Z,24.75
2023-05-14T09:34:05.955Z,24.76
2023-05-14T09:39:08.842Z,24.88
2023-05-14T09:44:11.708Z,25.19
2023-05-14T09:49:15.116Z,25.50
2023-05-14T09:54:17.992Z,25.51
2023-05-14T09:59:20.830Z,25.52
2023-05-14T10:04:24.483Z,25.19
2023-05-14T10:09:29.836Z,24.94
2023-05-14T10:14:38.820Z,24.77
2023-05-14T10:19:42.002Z,24.81
2023-05-14T10:24:46.234Z,25.26
2023-05-14T10:29:56.371Z,25.74
2023-05-14T10:35:01.832Z,26.17
2023-05-14T10:40:06.835Z,26.27
2023-05-14T10:45:12.821Z,26.10
2023-05-14T10:50:16.249Z,26.47
2023-05-14T10:55:19.119Z,26.74
2023-05-14T11:00:26.194Z,26.87
2023-05-14T11:05:29.360Z,26.78
2023-05-14T11:10:32.581Z,27.03
2023-05-14T11:15:36.235Z,27.58
2023-05-14T11:20:39.177Z,27.87
2023-05-14T11:25:43.008Z,27.37
2023-05-14T11:30:46.525Z,26.67
2023-05-14T11:35:49.490Z,26.75
2023-05-14T11:40:56.828Z,26.64
2023-05-14T11:45:59.773Z,26.32
2023-05-14T11:51:02.663Z,25.78
2023-05-14T11:56:07.603Z,25.26
2023-05-14T12:01:13.792Z,25.01
2023-05-14T12:06:16.593Z,25.11
2023-05-14T12:11:21.378Z,25.26
2023-05-14T12:16:24.244Z,25.77
2023-05-14T12:21:28.014Z,25.99
2023-05-14T12:26:34.264Z,25.82
2023-05-14T12:31:37.088Z,25.54
2023-05-14T12:36:39.945Z,25.32
2023-05-14T12:41:42.732Z,25.20
2023-05-14T12:46:46.196Z,25.09
2023-05-14T12:51:51.175Z,24.95
2023-05-14T12:56:55.663Z,24.88
2023-05-14T13:01:58.498Z,24.80
2023-05-14T13:07:01.332Z,25.29
2023-05-14T13:12:04.675Z,26.23
2023-05-14T13:17:08.277Z,26.62
2023-05-14T13:22:11.211Z,27.09
2023-05-14T13:27:14.025Z,28.05
2023-05-14T13:32:16.883Z,28.14
2023-05-14T13:37:20.077Z,27.71
2023-05-14T13:42:23.758Z,27.29
2023-05-14T13:47:27.029Z,27.06
2023-05-14T13:52:29.891Z,27.94
2023-05-14T13:57:32.723Z,29.15
2023-05-14T14:02:35.605Z,29.53
2023-05-14T14:07:40.676Z,30.35
2023-05-14T14:12:43.486Z,31.06
2023-05-14T14:17:46.377Z,31.48
2023-05-14T14:22:49.357Z,32.19
2023-05-14T14:27:52.281Z,32.96
2023-05-14T14:32:55.337Z,33.02
2023-05-14T14:37:58.290Z,32.13
2023-05-14T14:43:02.244Z,30.91
2023-05-14T14:48:38.009Z,29.69
2023-05-14T14:53:40.913Z,28.47
2023-05-14T14:58:43.824Z,28.56
2023-05-14T15:03:48.411Z,29.17
2023-05-14T15:08:51.283Z,30.63
2023-05-14T15:13:54.068Z,32.11
2023-05-14T15:18:56.922Z,33.11
2023-05-14T15:23:59.908Z,32.62
2023-05-14T15:29:04.764Z,31.54
2023-05-14T15:34:07.691Z,30.03
2023-05-14T15:39:10.509Z,28.75
2023-05-14T15:44:13.297Z,27.75
2023-05-14T15:49:16.122Z,27.06
2023-05-14T15:54:18.966Z,28.49
2023-05-14T15:59:21.883Z,30.91
2023-05-14T16:04:25.294Z,32.68
2023-05-14T16:09:28.118Z,33.11
2023-05-14T16:14:31.099Z,33.58
2023-05-14T16:19:33.929Z,33.87
2023-05-14T16:24:36.776Z,34.74
2023-05-14T16:29:39.595Z,34.63
2023-05-14T16:34:47.542Z,33.77
2023-05-14T16:39:50.500Z,32.93
2023-05-14T16:44:53.387Z,33.48
2023-05-14T16:49:57.656Z,33.42
2023-05-14T16:55:00.589Z,32.77
2023-05-14T17:00:06.304Z,32.72
2023-05-14T17:05:09.483Z,32.58
2023-05-14T17:10:12.418Z,31.92
2023-05-14T17:15:15.246Z,31.79
2023-05-14T17:20:18.070Z,32.74
2023-05-14T17:25:24.038Z,33.47
2023-05-14T17:30:27.200Z,33.88
2023-05-14T17:35:30.095Z,33.01
2023-05-14T17:40:33.648Z,31.27
2023-05-14T17:45:46.284Z,29.70
2023-05-14T17:50:56.497Z,28.06
2023-05-14T17:55:59.707Z,26.70
2023-05-14T18:01:02.664Z,25.58
2023-05-14T18:06:05.846Z,24.61
2023-05-14T18:11:08.913Z,23.71
2023-05-14T18:16:11.742Z,22.90
2023-05-14T18:21:14.642Z,22.09
2023-05-14T18:26:17.872Z,21.41
2023-05-14T18:31:20.835Z,20.71
2023-05-14T18:36:23.792Z,20.04
2023-05-14T18:41:26.685Z,19.36
2023-05-14T18:46:29.702Z,18.72
2023-05-14T18:51:32.732Z,18.16
2023-05-14T18:56:37.575Z,17.65
2023-05-14T19:01:40.540Z,17.17
2023-05-14T19:06:43.924Z,16.73
2023-05-14T19:11:47.692Z,16.31
2023-05-14T19:16:50.868Z,15.91
2023-05-14T19:21:53.731Z,15.54
2023-05-14T19:26:56.421Z,15.16
2023-05-14T19:31:59.590Z,14.83
2023-05-14T19:37:03.050Z,14.55
2023-05-14T19:42:06.331Z,14.29
2023-05-14T19:47:09.388Z,14.04
2023-05-14T19:52:12.289Z,13.80
2023-05-14T19:57:15.076Z,13.56
2023-05-14T20:02:18.642Z,13.32
2023-05-14T20:07:21.678Z,13.09
2023-05-14T20:12:24.516Z,12.90
2023-05-14T20:17:27.428Z,12.70
2023-05-14T20:22:30.426Z,12.53
2023-05-14T20:27:33.208Z,12.37
2023-05-14T20:32:36.083Z,12.21
2023-05-14T20:37:39.221Z,12.07
2023-05-14T20:42:41.916Z,11.93
2023-05-14T20:47:44.974Z,11.80
2023-05-14T20:52:47.749Z,11.68
2023-05-14T20:57:50.670Z,11.58
2023-05-14T21:02:54.027Z,11.48
2023-05-14T21:07:56.914Z,11.37
2023-05-14T21:12:59.770Z,11.26
2023-05-14T21:18:03.161Z,11.14
2023-05-14T21:23:06.092Z,11.04
2023-05-14T21:28:09.155Z,10.95
2023-05-14T21:33:12.007Z,10.91
2023-05-14T21:38:15.361Z,10.87
2023-05-14T21:43:18.305Z,10.83
2023-05-14T21:48:21.838Z,10.77
2023-05-14T21:53:24.742Z,10.72
2023-05-14T21:58:27.732Z,10.67
2023-05-14T22:03:30.605Z,10.65
2023-05-14T22:08:33.462Z,10.63
2023-05-14T22:13:40.893Z,10.62
2023-05-14T22:18:44.257Z,10.60
2023-05-14T22:23:48.010Z,10.58
2023-05-14T22:28:50.872Z,10.54
2023-05-14T22:33:53.799Z,10.49
2023-05-14T22:38:56.599Z,10.44
2023-05-14T22:43:59.405Z,10.39
2023-05-14T22:49:02.321Z,10.32
2023-05-14T22:54:05.200Z,10.25
2023-05-14T22:59:08.067Z,10.17
2023-05-14T23:04:11.192Z,10.12
2023-05-14T23:09:13.919Z,10.03
2023-05-14T23:14:18.050Z,9.96
2023-05-14T23:19:21.987Z,9.86
2023-05-14T23:24:26.237Z,9.76
2023-05-14T23:29:29.072Z,9.65
2023-05-14T23:34:31.892Z,9.54
2023-05-14T23:39:34.725Z,9.42
2023-05-14T23:44:37.568Z,9.33
2023-05-14T23:49:41.011Z,9.22
2023-05-14T23:54:43.804Z,9.17
2023-05-14T23:59:46.894Z,9.18
